sensor_id;sensor_type;location;lat;lon;timestamp;pressure;altitude;pressure_sealevel;temperature;humidity
51083;BME280;37131;42.694;23.350;2023-06-01T00:01:56;95681.06;;;12.66;100.00
51083;BME280;37131;42.694;23.350;2023-06-01T00:04:22;95674.59;;;12.68;100.00
51083;BME280;37131;42.694;23.350;2023-06-01T00:06:47;95675.69;;;12.72;100.00
51083;BME280;37131;42.694;23.350;2023-06-01T00:09:12;95675.84;;;12.77;100.00
51083;BME280;37131;42.694;23.350;2023-06-01T00:11:37;95679.69;;;12.87;100.00
51083;BME280;37131;42.694;23.350;2023-06-01T00:14:03;95670.69;;;12.82;100.00
51083;BME280;37131;42.694;23.350;2023-06-01T00:16:28;95668.53;;;12.68;100.00
51083;BME280;37131;42.694;23.350;2023-06-01T00:18:55;95671.38;;;12.66;100.00
51083;BME280;37131;42.694;23.350;2023-06-01T00:21:21;95668.66;;;12.49;100.00
51083;BME280;37131;42.694;23.350;2023-06-01T00:23:46;95669.75;;;12.41;100.00
51083;BME280;37131;42.694;23.350;2023-06-01T00:26:13;95675.44;;;12.38;100.00
51083;BME280;37131;42.694;23.350;2023-06-01T00:28:38;95673.72;;;12.32;100.00
51083;BME280;37131;42.694;23.350;2023-06-01T00:31:03;95671.56;;;12.29;100.00
51083;BME280;37131;42.694;23.350;2023-06-01T00:33:29;95677.00;;;12.27;100.00
51083;BME280;37131;42.694;23.350;2023-06-01T00:35:54;95673.69;;;12.20;100.00
51083;BME280;37131;42.694;23.350;2023-06-01T00:38:19;95681.41;;;12.15;100.00
51083;BME280;37131;42.694;23.350;2023-06-01T00:40:44;95676.97;;;12.16;100.00
51083;BME280;37131;42.694;23.350;2023-06-01T00:43:10;95674.59;;;12.14;100.00
51083;BME280;37131;42.694;23.350;2023-06-01T00:45:35;95673.88;;;12.07;100.00
51083;BME280;37131;42.694;23.350;2023-06-01T00:48:02;95665.25;;;12.06;100.00
51083;BME280;37131;42.694;23.350;2023-06-01T00:50:28;95662.63;;;12.06;100.00
51083;BME280;37131;42.694;23.350;2023-06-01T00:52:54;95663.31;;;12.02;100.00
51083;BME280;37131;42.694;23.350;2023-06-01T00:55:20;95673.44;;;12.10;100.00
51083;BME280;37131;42.694;23.350;2023-06-01T00:57:46;95675.00;;;11.99;100.00
51083;BME280;37131;42.694;23.350;2023-06-01T01:00:11;95688.06;;;11.99;100.00
51083;BME280;37131;42.694;23.350;2023-06-01T01:02:40;95683.06;;;11.98;100.00
51083;BME280;37131;42.694;23.350;2023-06-01T01:05:06;95682.47;;;11.96;100.00
51083;BME280;37131;42.694;23.350;2023-06-01T01:10:06;95681.31;;;11.91;100.00
51083;BME280;37131;42.694;23.350;2023-06-01T01:12:45;95687.31;;;11.92;100.00
51083;BME280;37131;42.694;23.350;2023-06-01T01:15:14;95679.09;;;11.88;100.00
51083;BME280;37131;42.694;23.350;2023-06-01T01:17:44;95682.09;;;11.92;100.00
51083;BME280;37131;42.694;23.350;2023-06-01T01:20:14;95689.38;;;11.90;100.00
51083;BME280;37131;42.694;23.350;2023-06-01T01:30:42;95686.59;;;11.85;100.00
51083;BME280;37131;42.694;23.350;2023-06-01T01:33:09;95676.25;;;11.78;100.00
51083;BME280;37131;42.694;23.350;2023-06-01T01:35:36;95684.28;;;11.76;100.00
51083;BME280;37131;42.694;23.350;2023-06-01T01:38:01;95685.97;;;11.71;100.00
51083;BME280;37131;42.694;23.350;2023-06-01T01:40:27;95678.66;;;11.61;100.00
51083;BME280;37131;42.694;23.350;2023-06-01T01:42:52;95680.25;;;11.62;100.00
51083;BME280;37131;42.694;23.350;2023-06-01T01:45:18;95683.75;;;11.56;100.00
51083;BME280;37131;42.694;23.350;2023-06-01T01:47:49;95680.09;;;11.57;100.00
51083;BME280;37131;42.694;23.350;2023-06-01T01:50:16;95686.00;;;11.52;100.00
51083;BME280;37131;42.694;23.350;2023-06-01T01:52:43;95699.13;;;11.46;100.00
51083;BME280;37131;42.694;23.350;2023-06-01T01:55:09;95689.41;;;11.34;100.00
51083;BME280;37131;42.694;23.350;2023-06-01T01:57:35;95697.47;;;11.33;100.00
51083;BME280;37131;42.694;23.350;2023-06-01T02:00:02;95700.84;;;11.33;100.00
51083;BME280;37131;42.694;23.350;2023-06-01T02:02:28;95697.81;;;11.36;100.00
51083;BME280;37131;42.694;23.350;2023-06-01T02:04:53;95698.91;;;11.29;100.00
51083;BME280;37131;42.694;23.350;2023-06-01T02:07:18;95696.16;;;11.23;100.00
51083;BME280;37131;42.694;23.350;2023-06-01T02:09:44;95696.38;;;11.22;100.00
51083;BME280;37131;42.694;23.350;2023-06-01T02:12:09;95692.72;;;11.23;100.00
51083;BME280;37131;42.694;23.350;2023-06-01T02:14:35;95694.97;;;11.19;100.00
51083;BME280;37131;42.694;23.350;2023-06-01T02:17:00;95699.78;;;11.22;100.00
51083;BME280;37131;42.694;23.350;2023-06-01T02:19:28;95697.50;;;11.26;100.00
51083;BME280;37131;42.694;23.350;2023-06-01T02:21:53;95699.91;;;11.28;100.00
51083;BME280;37131;42.694;23.350;2023-06-01T02:24:18;95696.94;;;11.24;100.00
51083;BME280;37131;42.694;23.350;2023-06-01T02:26:48;95698.38;;;11.20;100.00
51083;BME280;37131;42.694;23.350;2023-06-01T02:29:16;95701.59;;;11.22;100.00
51083;BME280;37131;42.694;23.350;2023-06-01T02:31:44;95702.72;;;11.26;100.00
51083;BME280;37131;42.694;23.350;2023-06-01T02:34:09;95704.56;;;11.26;100.00
51083;BME280;37131;42.694;23.350;2023-06-01T02:36:35;95710.44;;;11.21;100.00
51083;BME280;37131;42.694;23.350;2023-06-01T02:39:00;95711.44;;;11.20;100.00
51083;BME280;37131;42.694;23.350;2023-06-01T02:41:25;95703.03;;;11.18;100.00
51083;BME280;37131;42.694;23.350;2023-06-01T02:43:51;95713.03;;;11.21;100.00
51083;BME280;37131;42.694;23.350;2023-06-01T02:46:17;95711.88;;;11.17;100.00
51083;BME280;37131;42.694;23.350;2023-06-01T02:48:42;95707.00;;;11.20;100.00
51083;BME280;37131;42.694;23.350;2023-06-01T02:51:08;95711.16;;;11.28;100.00
51083;BME280;37131;42.694;23.350;2023-06-01T02:53:33;95710.50;;;11.33;100.00
51083;BME280;37131;42.694;23.350;2023-06-01T02:55:58;95703.03;;;11.36;100.00
51083;BME280;37131;42.694;23.350;2023-06-01T02:58:23;95704.84;;;11.36;100.00
51083;BME280;37131;42.694;23.350;2023-06-01T03:00:49;95707.47;;;11.36;100.00
51083;BME280;37131;42.694;23.350;2023-06-01T03:03:16;95712.19;;;11.46;100.00
51083;BME280;37131;42.694;23.350;2023-06-01T03:05:41;95705.66;;;11.55;100.00
51083;BME280;37131;42.694;23.350;2023-06-01T03:08:08;95699.47;;;11.68;100.00
51083;BME280;37131;42.694;23.350;2023-06-01T03:10:33;95705.06;;;11.71;100.00
51083;BME280;37131;42.694;23.350;2023-06-01T03:12:58;95705.13;;;11.65;100.00
51083;BME280;37131;42.694;23.350;2023-06-01T03:15:24;95724.00;;;11.67;100.00
51083;BME280;37131;42.694;23.350;2023-06-01T03:17:49;95712.88;;;11.71;100.00
51083;BME280;37131;42.694;23.350;2023-06-01T03:20:14;95715.63;;;11.76;100.00
51083;BME280;37131;42.694;23.350;2023-06-01T03:22:43;95720.44;;;11.80;100.00
51083;BME280;37131;42.694;23.350;2023-06-01T03:25:09;95715.91;;;11.87;100.00
51083;BME280;37131;42.694;23.350;2023-06-01T03:27:36;95720.50;;;11.91;100.00
51083;BME280;37131;42.694;23.350;2023-06-01T03:30:01;95713.88;;;11.89;100.00
51083;BME280;37131;42.694;23.350;2023-06-01T03:32:27;95711.28;;;11.89;100.00
51083;BME280;37131;42.694;23.350;2023-06-01T03:34:52;95711.50;;;11.87;100.00
51083;BME280;37131;42.694;23.350;2023-06-01T03:37:17;95716.13;;;11.85;100.00
51083;BME280;37131;42.694;23.350;2023-06-01T03:39:43;95717.28;;;11.89;100.00
51083;BME280;37131;42.694;23.350;2023-06-01T03:42:08;95716.44;;;11.96;100.00
51083;BME280;37131;42.694;23.350;2023-06-01T03:44:33;95718.88;;;12.09;100.00
51083;BME280;37131;42.694;23.350;2023-06-01T03:46:59;95718.00;;;12.15;100.00
51083;BME280;37131;42.694;23.350;2023-06-01T03:49:24;95717.63;;;12.11;100.00
51083;BME280;37131;42.694;23.350;2023-06-01T03:51:49;95718.88;;;12.09;100.00
51083;BME280;37131;42.694;23.350;2023-06-01T03:54:15;95724.13;;;12.21;100.00
51083;BME280;37131;42.694;23.350;2023-06-01T03:56:40;95713.41;;;12.10;100.00
51083;BME280;37131;42.694;23.350;2023-06-01T03:59:06;95722.66;;;12.13;100.00
51083;BME280;37131;42.694;23.350;2023-06-01T04:01:35;95728.53;;;12.08;100.00
51083;BME280;37131;42.694;23.350;2023-06-01T04:04:04;95722.88;;;12.11;100.00
51083;BME280;37131;42.694;23.350;2023-06-01T04:06:30;95726.41;;;12.17;100.00
51083;BME280;37131;42.694;23.350;2023-06-01T04:09:00;95721.09;;;12.24;100.00
51083;BME280;37131;42.694;23.350;2023-06-01T04:11:31;95731.63;;;12.17;100.00
51083;BME280;37131;42.694;23.350;2023-06-01T04:13:56;95728.81;;;12.19;100.00
51083;BME280;37131;42.694;23.350;2023-06-01T04:16:21;95725.44;;;12.30;100.00
51083;BME280;37131;42.694;23.350;2023-06-01T04:18:47;95726.69;;;12.27;100.00
51083;BME280;37131;42.694;23.350;2023-06-01T04:21:12;95727.59;;;12.33;100.00
51083;BME280;37131;42.694;23.350;2023-06-01T04:23:37;95731.00;;;12.34;100.00
51083;BME280;37131;42.694;23.350;2023-06-01T04:26:02;95736.16;;;12.40;100.00
51083;BME280;37131;42.694;23.350;2023-06-01T04:28:30;95718.41;;;12.42;100.00
51083;BME280;37131;42.694;23.350;2023-06-01T04:30:56;95728.44;;;12.45;100.00
51083;BME280;37131;42.694;23.350;2023-06-01T04:33:21;95725.81;;;12.45;100.00
51083;BME280;37131;42.694;23.350;2023-06-01T04:35:49;95726.41;;;12.48;100.00
51083;BME280;37131;42.694;23.350;2023-06-01T04:38:18;95724.81;;;12.46;100.00
51083;BME280;37131;42.694;23.350;2023-06-01T04:40:43;95726.00;;;12.32;100.00
51083;BME280;37131;42.694;23.350;2023-06-01T04:43:11;95724.00;;;12.46;100.00
51083;BME280;37131;42.694;23.350;2023-06-01T04:45:37;95731.28;;;12.56;100.00
51083;BME280;37131;42.694;23.350;2023-06-01T04:48:04;95731.44;;;12.61;100.00
51083;BME280;37131;42.694;23.350;2023-06-01T04:50:33;95733.03;;;12.74;100.00
51083;BME280;37131;42.694;23.350;2023-06-01T04:52:59;95734.88;;;12.73;100.00
51083;BME280;37131;42.694;23.350;2023-06-01T04:55:25;95737.25;;;12.75;100.00
51083;BME280;37131;42.694;23.350;2023-06-01T04:57:50;95738.50;;;12.72;100.00
51083;BME280;37131;42.694;23.350;2023-06-01T05:00:16;95733.72;;;12.81;100.00
51083;BME280;37131;42.694;23.350;2023-06-01T05:02:43;95740.44;;;12.77;100.00
51083;BME280;37131;42.694;23.350;2023-06-01T05:05:11;95742.16;;;12.71;100.00
51083;BME280;37131;42.694;23.350;2023-06-01T05:07:37;95742.50;;;12.75;100.00
51083;BME280;37131;42.694;23.350;2023-06-01T05:10:03;95745.47;;;12.78;100.00
51083;BME280;37131;42.694;23.350;2023-06-01T05:12:31;95746.13;;;12.86;100.00
51083;BME280;37131;42.694;23.350;2023-06-01T05:14:56;95746.81;;;12.81;100.00
51083;BME280;37131;42.694;23.350;2023-06-01T05:17:21;95739.88;;;12.87;100.00
51083;BME280;37131;42.694;23.350;2023-06-01T05:19:46;95738.53;;;12.96;100.00
51083;BME280;37131;42.694;23.350;2023-06-01T05:22:12;95736.38;;;13.05;100.00
51083;BME280;37131;42.694;23.350;2023-06-01T05:24:38;95739.56;;;13.19;100.00
51083;BME280;37131;42.694;23.350;2023-06-01T05:27:03;95728.88;;;13.44;100.00
51083;BME280;37131;42.694;23.350;2023-06-01T05:29:28;95725.59;;;13.37;100.00
51083;BME280;37131;42.694;23.350;2023-06-01T05:31:54;95718.28;;;13.39;100.00
51083;BME280;37131;42.694;23.350;2023-06-01T05:34:19;95720.78;;;13.33;100.00
51083;BME280;37131;42.694;23.350;2023-06-01T05:36:45;95716.09;;;13.47;100.00
51083;BME280;37131;42.694;23.350;2023-06-01T05:39:11;95724.28;;;13.63;100.00
51083;BME280;37131;42.694;23.350;2023-06-01T05:41:36;95719.94;;;13.57;100.00
51083;BME280;37131;42.694;23.350;2023-06-01T05:44:01;95722.34;;;13.70;100.00
51083;BME280;37131;42.694;23.350;2023-06-01T05:46:27;95717.63;;;13.84;100.00
51083;BME280;37131;42.694;23.350;2023-06-01T05:48:52;95720.72;;;13.81;100.00
51083;BME280;37131;42.694;23.350;2023-06-01T05:51:18;95725.03;;;13.87;100.00
51083;BME280;37131;42.694;23.350;2023-06-01T05:53:43;95724.44;;;13.97;100.00
51083;BME280;37131;42.694;23.350;2023-06-01T05:56:08;95723.06;;;13.94;100.00
51083;BME280;37131;42.694;23.350;2023-06-01T05:58:34;95718.59;;;13.95;100.00
51083;BME280;37131;42.694;23.350;2023-06-01T06:00:59;95724.31;;;13.92;100.00
51083;BME280;37131;42.694;23.350;2023-06-01T06:03:24;95718.81;;;14.05;100.00
51083;BME280;37131;42.694;23.350;2023-06-01T06:05:49;95718.63;;;14.24;100.00
51083;BME280;37131;42.694;23.350;2023-06-01T06:08:15;95721.13;;;14.18;100.00
51083;BME280;37131;42.694;23.350;2023-06-01T06:10:40;95721.56;;;14.27;100.00
51083;BME280;37131;42.694;23.350;2023-06-01T06:13:06;95721.72;;;14.20;100.00
51083;BME280;37131;42.694;23.350;2023-06-01T06:15:31;95718.16;;;14.27;100.00
51083;BME280;37131;42.694;23.350;2023-06-01T06:17:56;95720.22;;;14.25;100.00
51083;BME280;37131;42.694;23.350;2023-06-01T06:20:22;95718.69;;;14.29;100.00
51083;BME280;37131;42.694;23.350;2023-06-01T06:22:50;95722.50;;;14.50;100.00
51083;BME280;37131;42.694;23.350;2023-06-01T06:25:16;95722.63;;;14.72;100.00
51083;BME280;37131;42.694;23.350;2023-06-01T06:27:41;95724.13;;;14.68;100.00
51083;BME280;37131;42.694;23.350;2023-06-01T06:30:07;95721.81;;;14.71;100.00
51083;BME280;37131;42.694;23.350;2023-06-01T06:32:32;95720.41;;;14.81;100.00
51083;BME280;37131;42.694;23.350;2023-06-01T06:34:58;95729.91;;;14.70;100.00
51083;BME280;37131;42.694;23.350;2023-06-01T06:37:23;95727.88;;;14.72;100.00
51083;BME280;37131;42.694;23.350;2023-06-01T06:39:48;95724.44;;;14.71;100.00
51083;BME280;37131;42.694;23.350;2023-06-01T06:42:14;95724.44;;;14.71;100.00
51083;BME280;37131;42.694;23.350;2023-06-01T06:44:40;95725.78;;;14.74;100.00
51083;BME280;37131;42.694;23.350;2023-06-01T06:47:05;95714.97;;;14.87;100.00
51083;BME280;37131;42.694;23.350;2023-06-01T06:49:30;95718.13;;;14.89;100.00
51083;BME280;37131;42.694;23.350;2023-06-01T06:51:56;95715.91;;;14.98;100.00
51083;BME280;37131;42.694;23.350;2023-06-01T06:54:21;95708.22;;;15.31;100.00
51083;BME280;37131;42.694;23.350;2023-06-01T06:56:47;95714.06;;;15.33;100.00
51083;BME280;37131;42.694;23.350;2023-06-01T06:59:12;95708.78;;;15.33;100.00
51083;BME280;37131;42.694;23.350;2023-06-01T07:01:38;95713.38;;;15.42;100.00
51083;BME280;37131;42.694;23.350;2023-06-01T07:04:04;95715.84;;;15.71;100.00
51083;BME280;37131;42.694;23.350;2023-06-01T07:06:30;95716.34;;;15.68;100.00
51083;BME280;37131;42.694;23.350;2023-06-01T07:08:57;95715.13;;;15.76;100.00
51083;BME280;37131;42.694;23.350;2023-06-01T07:11:23;95717.34;;;15.84;100.00
51083;BME280;37131;42.694;23.350;2023-06-01T07:13:48;95705.34;;;15.93;100.00
51083;BME280;37131;42.694;23.350;2023-06-01T07:16:14;95702.59;;;16.05;100.00
51083;BME280;37131;42.694;23.350;2023-06-01T07:18:39;95703.81;;;16.25;100.00
51083;BME280;37131;42.694;23.350;2023-06-01T07:21:04;95697.38;;;16.38;100.00
51083;BME280;37131;42.694;23.350;2023-06-01T07:23:30;95701.28;;;16.35;100.00
51083;BME280;37131;42.694;23.350;2023-06-01T07:25:55;95696.53;;;16.64;100.00
51083;BME280;37131;42.694;23.350;2023-06-01T07:28:20;95693.94;;;16.70;100.00
51083;BME280;37131;42.694;23.350;2023-06-01T07:30:50;95696.09;;;16.73;100.00
51083;BME280;37131;42.694;23.350;2023-06-01T07:33:15;95695.28;;;16.72;100.00
51083;BME280;37131;42.694;23.350;2023-06-01T07:35:41;95694.44;;;16.66;100.00
51083;BME280;37131;42.694;23.350;2023-06-01T07:38:06;95692.69;;;16.77;100.00
51083;BME280;37131;42.694;23.350;2023-06-01T07:40:32;95686.22;;;16.90;100.00
51083;BME280;37131;42.694;23.350;2023-06-01T07:42:57;95683.09;;;16.93;100.00
51083;BME280;37131;42.694;23.350;2023-06-01T07:45:23;95685.75;;;16.98;100.00
51083;BME280;37131;42.694;23.350;2023-06-01T07:47:48;95683.13;;;16.98;100.00
51083;BME280;37131;42.694;23.350;2023-06-01T07:50:13;95679.78;;;17.08;100.00
51083;BME280;37131;42.694;23.350;2023-06-01T07:52:39;95680.03;;;17.07;100.00
51083;BME280;37131;42.694;23.350;2023-06-01T07:55:04;95670.97;;;17.35;100.00
51083;BME280;37131;42.694;23.350;2023-06-01T07:57:30;95667.13;;;17.10;100.00
51083;BME280;37131;42.694;23.350;2023-06-01T07:59:55;95672.16;;;17.12;100.00
51083;BME280;37131;42.694;23.350;2023-06-01T08:02:21;95678.88;;;17.40;100.00
51083;BME280;37131;42.694;23.350;2023-06-01T08:04:46;95671.78;;;17.41;100.00
51083;BME280;37131;42.694;23.350;2023-06-01T08:07:12;95672.09;;;17.54;100.00
51083;BME280;37131;42.694;23.350;2023-06-01T08:09:39;95679.31;;;17.80;100.00
51083;BME280;37131;42.694;23.350;2023-06-01T08:12:05;95675.94;;;17.95;100.00
51083;BME280;37131;42.694;23.350;2023-06-01T08:14:30;95674.41;;;18.14;100.00
51083;BME280;37131;42.694;23.350;2023-06-01T08:16:58;95669.13;;;18.14;97.23
51083;BME280;37131;42.694;23.350;2023-06-01T08:19:25;95666.19;;;18.00;100.00
51083;BME280;37131;42.694;23.350;2023-06-01T08:21:51;95666.75;;;18.18;100.00
51083;BME280;37131;42.694;23.350;2023-06-01T08:24:16;95660.19;;;18.20;99.17
51083;BME280;37131;42.694;23.350;2023-06-01T08:26:43;95655.69;;;18.31;100.00
51083;BME280;37131;42.694;23.350;2023-06-01T08:29:08;95656.75;;;18.51;100.00
51083;BME280;37131;42.694;23.350;2023-06-01T08:31:34;95646.75;;;18.53;98.35
51083;BME280;37131;42.694;23.350;2023-06-01T08:33:59;95650.16;;;18.33;97.49
51083;BME280;37131;42.694;23.350;2023-06-01T08:36:24;95650.44;;;18.52;99.99
51083;BME280;37131;42.694;23.350;2023-06-01T08:38:50;95652.25;;;18.67;100.00
51083;BME280;37131;42.694;23.350;2023-06-01T08:41:24;95649.09;;;18.59;98.18
51083;BME280;37131;42.694;23.350;2023-06-01T08:44:02;95640.94;;;18.46;98.62
51083;BME280;37131;42.694;23.350;2023-06-01T08:46:28;95635.91;;;18.65;100.00
51083;BME280;37131;42.694;23.350;2023-06-01T08:48:55;95637.72;;;18.74;93.52
51083;BME280;37131;42.694;23.350;2023-06-01T08:51:23;95634.56;;;18.93;96.72
51083;BME280;37131;42.694;23.350;2023-06-01T08:53:49;95627.16;;;19.00;94.71
51083;BME280;37131;42.694;23.350;2023-06-01T08:56:14;95628.94;;;19.20;90.24
51083;BME280;37131;42.694;23.350;2023-06-01T08:58:39;95623.34;;;19.32;88.21
51083;BME280;37131;42.694;23.350;2023-06-01T09:01:06;95618.84;;;19.43;91.66
51083;BME280;37131;42.694;23.350;2023-06-01T09:03:31;95619.06;;;19.52;90.07
51083;BME280;37131;42.694;23.350;2023-06-01T09:05:57;95608.41;;;19.62;90.21
51083;BME280;37131;42.694;23.350;2023-06-01T09:08:22;95610.44;;;19.86;86.38
51083;BME280;37131;42.694;23.350;2023-06-01T09:10:48;95608.25;;;19.93;87.96
51083;BME280;37131;42.694;23.350;2023-06-01T09:13:13;95606.69;;;19.92;85.37
51083;BME280;37131;42.694;23.350;2023-06-01T09:15:54;95600.66;;;19.86;85.34
51083;BME280;37131;42.694;23.350;2023-06-01T09:18:20;95602.88;;;20.08;88.08
51083;BME280;37131;42.694;23.350;2023-06-01T09:20:45;95601.09;;;19.98;81.97
51083;BME280;37131;42.694;23.350;2023-06-01T09:23:11;95606.09;;;20.05;85.32
51083;BME280;37131;42.694;23.350;2023-06-01T09:25:36;95607.22;;;20.28;79.22
51083;BME280;37131;42.694;23.350;2023-06-01T09:28:01;95599.28;;;20.28;81.48
51083;BME280;37131;42.694;23.350;2023-06-01T09:30:48;95593.63;;;20.40;82.33
51083;BME280;37131;42.694;23.350;2023-06-01T09:33:13;95590.88;;;20.50;80.87
51083;BME280;37131;42.694;23.350;2023-06-01T09:35:40;95596.22;;;20.80;75.09
51083;BME280;37131;42.694;23.350;2023-06-01T09:38:06;95580.59;;;20.78;73.19
51083;BME280;37131;42.694;23.350;2023-06-01T09:40:32;95575.66;;;20.96;76.91
51083;BME280;37131;42.694;23.350;2023-06-01T09:42:57;95576.28;;;20.88;76.52
51083;BME280;37131;42.694;23.350;2023-06-01T09:45:22;95573.44;;;21.03;71.59
51083;BME280;37131;42.694;23.350;2023-06-01T09:47:49;95573.66;;;21.31;70.85
51083;BME280;37131;42.694;23.350;2023-06-01T09:52:59;95558.31;;;21.52;71.32
51083;BME280;37131;42.694;23.350;2023-06-01T09:55:25;95554.31;;;21.49;70.60
51083;BME280;37131;42.694;23.350;2023-06-01T09:57:50;95541.59;;;21.51;71.06
51083;BME280;37131;42.694;23.350;2023-06-01T10:00:22;95546.34;;;21.49;61.79
51083;BME280;37131;42.694;23.350;2023-06-01T10:02:49;95541.06;;;21.49;69.25
51083;BME280;37131;42.694;23.350;2023-06-01T10:05:15;95538.47;;;21.44;65.10
51083;BME280;37131;42.694;23.350;2023-06-01T10:07:41;95544.06;;;21.43;63.50
51083;BME280;37131;42.694;23.350;2023-06-01T10:10:06;95537.41;;;21.45;61.12
51083;BME280;37131;42.694;23.350;2023-06-01T10:12:33;95536.59;;;21.26;63.40
51083;BME280;37131;42.694;23.350;2023-06-01T10:14:59;95532.38;;;21.25;64.46
51083;BME280;37131;42.694;23.350;2023-06-01T10:17:25;95538.00;;;21.18;61.81
51083;BME280;37131;42.694;23.350;2023-06-01T10:19:51;95533.72;;;21.22;63.84
51083;BME280;37131;42.694;23.350;2023-06-01T10:22:17;95537.81;;;21.14;57.96
51083;BME280;37131;42.694;23.350;2023-06-01T10:24:42;95537.06;;;21.09;58.86
51083;BME280;37131;42.694;23.350;2023-06-01T10:27:13;95534.06;;;21.15;64.15
51083;BME280;37131;42.694;23.350;2023-06-01T10:29:40;95537.25;;;21.17;60.43
51083;BME280;37131;42.694;23.350;2023-06-01T10:32:51;95534.47;;;21.03;62.01
51083;BME280;37131;42.694;23.350;2023-06-01T10:34:52;95531.31;;;21.01;65.94
51083;BME280;37131;42.694;23.350;2023-06-01T10:37:18;95535.28;;;21.04;67.22
51083;BME280;37131;42.694;23.350;2023-06-01T10:39:43;95527.94;;;20.96;62.48
51083;BME280;37131;42.694;23.350;2023-06-01T10:47:03;95527.09;;;21.00;56.01
51083;BME280;37131;42.694;23.350;2023-06-01T10:52:24;95527.88;;;20.77;53.39
51083;BME280;37131;42.694;23.350;2023-06-01T10:54:57;95521.53;;;20.78;52.56
51083;BME280;37131;42.694;23.350;2023-06-01T10:57:41;95518.03;;;20.82;51.40
51083;BME280;37131;42.694;23.350;2023-06-01T11:02:34;95507.53;;;20.72;55.45
51083;BME280;37131;42.694;23.350;2023-06-01T11:07:43;95496.25;;;20.61;57.05
51083;BME280;37131;42.694;23.350;2023-06-01T11:10:09;95497.72;;;20.73;58.87
51083;BME280;37131;42.694;23.350;2023-06-01T11:15:20;95504.03;;;21.01;57.53
51083;BME280;37131;42.694;23.350;2023-06-01T11:17:47;95496.88;;;21.20;58.20
51083;BME280;37131;42.694;23.350;2023-06-01T11:20:12;95492.97;;;21.37;54.73
51083;BME280;37131;42.694;23.350;2023-06-01T11:22:38;95484.13;;;21.42;54.92
51083;BME280;37131;42.694;23.350;2023-06-01T11:25:05;95490.72;;;21.44;56.48
51083;BME280;37131;42.694;23.350;2023-06-01T11:27:33;95484.41;;;21.40;51.61
51083;BME280;37131;42.694;23.350;2023-06-01T11:29:58;95482.50;;;21.27;51.75
51083;BME280;37131;42.694;23.350;2023-06-01T11:32:24;95479.84;;;21.27;51.79
51083;BME280;37131;42.694;23.350;2023-06-01T11:34:49;95482.91;;;21.34;51.06
51083;BME280;37131;42.694;23.350;2023-06-01T11:37:17;95486.28;;;21.20;50.91
51083;BME280;37131;42.694;23.350;2023-06-01T11:39:43;95491.22;;;21.08;52.68
51083;BME280;37131;42.694;23.350;2023-06-01T11:42:17;95500.97;;;20.89;54.28
51083;BME280;37131;42.694;23.350;2023-06-01T11:44:44;95503.19;;;20.81;58.17
51083;BME280;37131;42.694;23.350;2023-06-01T11:47:10;95507.78;;;20.76;55.27
51083;BME280;37131;42.694;23.350;2023-06-01T11:49:45;95512.34;;;20.65;55.13
51083;BME280;37131;42.694;23.350;2023-06-01T11:52:13;95510.66;;;20.21;62.77
51083;BME280;37131;42.694;23.350;2023-06-01T11:54:38;95515.53;;;19.74;66.52
51083;BME280;37131;42.694;23.350;2023-06-01T11:57:04;95512.63;;;19.25;72.12
51083;BME280;37131;42.694;23.350;2023-06-01T11:59:37;95510.13;;;18.89;73.60
51083;BME280;37131;42.694;23.350;2023-06-01T12:02:03;95515.72;;;18.67;77.51
51083;BME280;37131;42.694;23.350;2023-06-01T12:04:40;95524.25;;;18.18;82.28
51083;BME280;37131;42.694;23.350;2023-06-01T12:07:05;95521.13;;;17.95;84.73
51083;BME280;37131;42.694;23.350;2023-06-01T12:09:31;95497.84;;;17.61;89.00
51083;BME280;37131;42.694;23.350;2023-06-01T12:11:57;95518.94;;;17.51;93.56
51083;BME280;37131;42.694;23.350;2023-06-01T12:14:23;95511.72;;;17.21;97.51
51083;BME280;37131;42.694;23.350;2023-06-01T12:16:55;95509.63;;;17.17;97.79
51083;BME280;37131;42.694;23.350;2023-06-01T12:19:21;95492.50;;;17.25;95.82
51083;BME280;37131;42.694;23.350;2023-06-01T12:21:51;95493.56;;;17.29;96.11
51083;BME280;37131;42.694;23.350;2023-06-01T12:24:17;95492.78;;;17.29;95.03
51083;BME280;37131;42.694;23.350;2023-06-01T12:26:42;95489.09;;;17.30;94.20
51083;BME280;37131;42.694;23.350;2023-06-01T12:29:08;95488.50;;;17.12;98.81
51083;BME280;37131;42.694;23.350;2023-06-01T12:31:34;95480.56;;;17.02;98.70
51083;BME280;37131;42.694;23.350;2023-06-01T12:33:59;95486.41;;;17.04;96.60
51083;BME280;37131;42.694;23.350;2023-06-01T12:36:29;95479.44;;;16.77;100.00
51083;BME280;37131;42.694;23.350;2023-06-01T12:38:56;95478.78;;;16.55;100.00
51083;BME280;37131;42.694;23.350;2023-06-01T12:41:23;95467.72;;;16.58;100.00
51083;BME280;37131;42.694;23.350;2023-06-01T12:43:49;95471.59;;;16.40;100.00
51083;BME280;37131;42.694;23.350;2023-06-01T12:46:27;95474.09;;;16.14;100.00
51083;BME280;37131;42.694;23.350;2023-06-01T12:48:53;95465.69;;;16.17;100.00
51083;BME280;37131;42.694;23.350;2023-06-01T12:51:19;95470.44;;;16.20;100.00
51083;BME280;37131;42.694;23.350;2023-06-01T12:53:45;95466.50;;;16.23;100.00
51083;BME280;37131;42.694;23.350;2023-06-01T12:56:10;95463.13;;;16.27;100.00
51083;BME280;37131;42.694;23.350;2023-06-01T12:58:36;95458.44;;;16.40;100.00
51083;BME280;37131;42.694;23.350;2023-06-01T13:01:01;95461.13;;;16.45;100.00
51083;BME280;37131;42.694;23.350;2023-06-01T13:03:26;95452.78;;;16.69;100.00
51083;BME280;37131;42.694;23.350;2023-06-01T13:05:53;95455.22;;;16.80;100.00
51083;BME280;37131;42.694;23.350;2023-06-01T13:08:18;95453.16;;;16.93;100.00